createdAt,value
2022-12-25T00:03:32.550Z,8.68
2022-12-25T00:06:04.487Z,8.05
2022-12-25T00:08:33.098Z,9.43
2022-12-25T00:11:01.905Z,8.48
2022-12-25T00:13:29.939Z,8.40
2022-12-25T00:15:58.057Z,7.38
2022-12-25T00:18:26.940Z,9.20
2022-12-25T00:20:59.382Z,8.00
2022-12-25T00:23:29.248Z,6.90
2022-12-25T00:25:57.141Z,7.90
2022-12-25T00:28:26.193Z,7.97
2022-12-25T00:30:53.883Z,12.45
2022-12-25T00:33:21.487Z,13.30
2022-12-25T00:35:59.300Z,11.75
2022-12-25T00:38:29.073Z,9.07
2022-12-25T00:41:00.749Z,8.93
2022-12-25T00:43:28.361Z,6.57
2022-12-25T00:45:57.870Z,9.73
2022-12-25T00:48:26.536Z,7.75
2022-12-25T00:50:56.939Z,6.35
2022-12-25T00:53:25.173Z,7.72
2022-12-25T00:55:56.532Z,6.40
2022-12-25T01:02:19.386Z,8.35
2022-12-25T01:04:47.483Z,5.50
2022-12-25T01:07:17.064Z,8.85
2022-12-25T01:10:11.275Z,7.07
2022-12-25T01:12:45.006Z,6.47
2022-12-25T01:15:14.438Z,9.43
2022-12-25T01:17:42.351Z,8.38
2022-12-25T01:20:11.581Z,7.65
2022-12-25T01:22:39.537Z,8.45
2022-12-25T01:25:08.147Z,8.43
2022-12-25T01:27:36.446Z,10.02
2022-12-25T01:30:06.636Z,7.88
2022-12-25T01:32:34.670Z,7.93
2022-12-25T01:35:02.589Z,7.80
2022-12-25T01:37:30.293Z,7.00
2022-12-25T01:39:58.639Z,9.88
2022-12-25T01:42:26.366Z,9.25
2022-12-25T01:45:36.336Z,7.35
2022-12-25T01:48:08.007Z,7.45
2022-12-25T01:50:38.699Z,6.53
2022-12-25T01:53:08.314Z,8.75
2022-12-25T01:55:37.679Z,5.95
2022-12-25T01:58:05.943Z,6.32
2022-12-25T02:00:35.511Z,7.63
2022-12-25T02:03:04.160Z,6.17
2022-12-25T02:05:34.453Z,7.72
2022-12-25T02:08:04.136Z,10.60
2022-12-25T02:10:32.147Z,5.78
2022-12-25T02:13:02.285Z,5.63
2022-12-25T02:15:41.477Z,7.17
2022-12-25T02:18:15.179Z,10.75
2022-12-25T02:21:04.361Z,6.88
2022-12-25T02:23:50.175Z,7.18
2022-12-25T02:26:37.993Z,10.85
2022-12-25T02:32:15.700Z,7.35
2022-12-25T02:34:53.258Z,6.30
2022-12-25T02:37:27.879Z,6.90
2022-12-25T02:40:01.735Z,7.38
2022-12-25T02:42:57.561Z,6.07
2022-12-25T02:45:50.885Z,6.43
2022-12-25T02:48:38.959Z,5.20
2022-12-25T02:51:28.806Z,8.35
2022-12-25T02:54:18.583Z,5.32
2022-12-25T02:57:06.350Z,8.33
2022-12-25T02:59:55.624Z,6.80
2022-12-25T03:02:43.548Z,5.72
2022-12-25T03:05:48.236Z,7.38
2022-12-25T03:08:21.382Z,6.47
2022-12-25T03:11:13.602Z,5.00
2022-12-25T03:13:44.269Z,5.07
2022-12-25T03:16:30.303Z,6.32
2022-12-25T03:19:00.748Z,6.93
2022-12-25T03:21:46.314Z,5.78
2022-12-25T03:24:31.450Z,6.07
2022-12-25T03:26:59.319Z,4.68
2022-12-25T03:29:48.512Z,4.25
2022-12-25T03:32:27.696Z,6.13
2022-12-25T03:35:23.638Z,4.57
2022-12-25T03:38:17.205Z,4.73
2022-12-25T03:41:19.652Z,6.75
2022-12-25T03:44:12.003Z,7.40
2022-12-25T03:47:06.877Z,5.20
2022-12-25T03:49:59.844Z,7.95
2022-12-25T03:52:47.761Z,9.50
2022-12-25T03:55:36.382Z,5.90
2022-12-25T03:58:22.083Z,5.57
2022-12-25T04:01:07.509Z,5.68
2022-12-25T04:03:51.770Z,5.70
2022-12-25T04:06:37.314Z,7.37
2022-12-25T04:09:24.089Z,13.52
2022-12-25T04:12:09.325Z,11.25
2022-12-25T04:14:54.698Z,10.27
2022-12-25T04:17:39.721Z,5.15
2022-12-25T04:20:26.954Z,5.90
2022-12-25T04:23:12.215Z,4.40
2022-12-25T04:26:00.133Z,4.43
2022-12-25T04:28:45.829Z,6.07
2022-12-25T04:31:31.530Z,6.43
2022-12-25T04:34:16.884Z,5.87
2022-12-25T04:36:46.683Z,11.70
2022-12-25T04:39:14.685Z,18.30
2022-12-25T04:41:43.841Z,21.35
2022-12-25T04:44:12.051Z,22.13
2022-12-25T04:46:40.025Z,15.33
2022-12-25T04:49:07.812Z,10.77
2022-12-25T04:51:35.726Z,7.60
2022-12-25T04:54:03.844Z,8.18
2022-12-25T04:56:31.804Z,7.15
2022-12-25T04:59:03.959Z,8.83
2022-12-25T05:01:31.897Z,4.80
2022-12-25T05:03:59.732Z,5.38
2022-12-25T05:06:27.440Z,6.05
2022-12-25T05:08:55.324Z,8.57
2022-12-25T05:11:23.725Z,8.17
2022-12-25T05:13:51.556Z,7.70
2022-12-25T05:16:22.015Z,7.60
2022-12-25T05:18:50.926Z,9.82
2022-12-25T05:21:19.767Z,11.40
2022-12-25T05:23:50.856Z,6.93
2022-12-25T05:26:21.375Z,7.22
2022-12-25T05:28:49.499Z,8.80
2022-12-25T05:31:18.067Z,7.70
2022-12-25T05:33:50.102Z,7.90
2022-12-25T05:36:19.027Z,9.70
2022-12-25T05:38:46.985Z,6.97
2022-12-25T05:41:14.729Z,8.65
2022-12-25T05:43:42.786Z,11.13
2022-12-25T05:46:11.734Z,10.65
2022-12-25T05:48:39.943Z,11.63
2022-12-25T05:51:12.084Z,9.20
2022-12-25T05:53:40.225Z,8.18
2022-12-25T05:56:09.160Z,10.10
2022-12-25T05:58:39.839Z,9.55
2022-12-25T06:01:13.126Z,12.20
2022-12-25T06:03:42.514Z,11.88
2022-12-25T06:06:12.632Z,11.23
2022-12-25T06:08:41.313Z,9.05
2022-12-25T06:11:10.109Z,9.90
2022-12-25T06:13:38.040Z,10.80
2022-12-25T06:16:07.107Z,13.15
2022-12-25T06:18:36.948Z,11.77
2022-12-25T06:21:07.640Z,8.75
2022-12-25T06:23:38.270Z,9.45
2022-12-25T06:26:07.135Z,9.50
2022-12-25T06:28:35.781Z,10.75
2022-12-25T06:31:07.993Z,12.15
2022-12-25T06:33:36.416Z,10.60
2022-12-25T06:36:09.908Z,10.52
2022-12-25T06:38:39.482Z,8.00
2022-12-25T06:41:08.659Z,10.20
2022-12-25T06:43:36.505Z,11.73
2022-12-25T06:46:05.439Z,12.85
2022-12-25T06:48:34.011Z,12.73
2022-12-25T06:51:02.542Z,9.93
2022-12-25T06:53:38.915Z,10.65
2022-12-25T06:56:15.477Z,11.52
2022-12-25T06:58:44.749Z,11.45
2022-12-25T07:01:18.631Z,11.20
2022-12-25T07:03:48.030Z,10.17
2022-12-25T07:06:16.254Z,12.43
2022-12-25T07:08:43.951Z,10.32
2022-12-25T07:11:13.231Z,14.30
2022-12-25T07:13:41.454Z,10.77
2022-12-25T07:16:09.971Z,11.27
2022-12-25T07:18:38.312Z,11.30
2022-12-25T07:21:10.530Z,13.70
2022-12-25T07:23:38.611Z,12.93
2022-12-25T07:26:07.040Z,11.00
2022-12-25T07:28:36.481Z,11.23
2022-12-25T07:31:06.500Z,11.57
2022-12-25T07:33:34.499Z,11.13
2022-12-25T07:36:02.401Z,10.85
2022-12-25T07:38:30.312Z,9.30
2022-12-25T07:40:58.195Z,10.00
2022-12-25T07:43:26.490Z,10.43
2022-12-25T07:46:00.242Z,10.93
2022-12-25T07:48:28.532Z,11.68
2022-12-25T07:50:59.991Z,12.35
2022-12-25T07:53:28.713Z,11.67
2022-12-25T07:56:00.919Z,11.82
2022-12-25T07:58:29.686Z,10.82
2022-12-25T08:01:04.458Z,13.85
2022-12-25T08:03:33.009Z,11.15
2022-12-25T08:06:02.494Z,12.37
2022-12-25T08:08:31.178Z,10.73
2022-12-25T08:10:59.493Z,13.45
2022-12-25T08:13:28.789Z,11.35
2022-12-25T08:16:00.098Z,9.27
2022-12-25T08:18:30.311Z,11.23
2022-12-25T08:20:58.744Z,9.43
2022-12-25T08:23:27.629Z,8.43
2022-12-25T08:26:00.381Z,10.13
2022-12-25T08:28:32.104Z,9.57
2022-12-25T08:31:01.489Z,8.60
2022-12-25T08:33:29.483Z,9.75
2022-12-25T08:36:03.160Z,10.75
2022-12-25T08:38:31.023Z,8.43
2022-12-25T08:40:59.006Z,8.65
2022-12-25T08:43:27.442Z,10.23
2022-12-25T08:45:55.297Z,8.40
2022-12-25T08:48:24.720Z,12.07
2022-12-25T08:50:53.832Z,9.63
2022-12-25T08:53:22.794Z,9.27
2022-12-25T08:55:51.941Z,8.00
2022-12-25T08:58:19.775Z,7.07
2022-12-25T09:00:47.458Z,8.25
2022-12-25T09:03:15.314Z,8.07
2022-12-25T09:05:44.401Z,7.55
2022-12-25T09:08:12.261Z,6.73
2022-12-25T09:10:39.882Z,6.35
2022-12-25T09:13:07.548Z,9.23
2022-12-25T09:15:36.699Z,8.13
2022-12-25T09:18:04.962Z,8.43
2022-12-25T09:20:32.620Z,8.77
2022-12-25T09:23:01.798Z,6.25
2022-12-25T09:25:29.546Z,6.70
2022-12-25T09:27:57.820Z,8.70
2022-12-25T09:30:25.679Z,6.82
2022-12-25T09:32:53.342Z,11.27
2022-12-25T09:35:21.210Z,10.23
2022-12-25T09:37:49.218Z,8.43
2022-12-25T09:40:23.396Z,8.13
2022-12-25T09:42:57.685Z,9.05
2022-12-25T09:45:28.535Z,9.00
2022-12-25T09:48:00.134Z,8.82
2022-12-25T09:50:44.447Z,9.77
2022-12-25T09:53:20.866Z,15.80
2022-12-25T09:56:00.166Z,29.05
2022-12-25T09:58:29.930Z,13.27
2022-12-25T10:01:05.301Z,10.10
2022-12-25T10:03:47.635Z,14.95
2022-12-25T10:06:22.159Z,14.15
2022-12-25T10:09:08.812Z,15.38
2022-12-25T10:11:53.948Z,11.33
2022-12-25T10:14:31.812Z,10.32
2022-12-25T10:17:16.845Z,14.00
2022-12-25T10:19:50.298Z,12.75
2022-12-25T10:22:25.045Z,10.57
2022-12-25T10:24:55.874Z,7.50
2022-12-25T10:27:31.849Z,8.80
2022-12-25T10:30:00.003Z,11.13
2022-12-25T10:32:27.998Z,13.05
2022-12-25T10:34:56.166Z,7.55
2022-12-25T10:37:26.277Z,21.40
2022-12-25T10:39:53.887Z,10.60
2022-12-25T10:42:35.093Z,10.85
2022-12-25T10:45:05.457Z,11.50
2022-12-25T10:47:38.246Z,11.90
2022-12-25T10:50:11.370Z,7.57
2022-12-25T10:52:52.408Z,8.10
2022-12-25T10:55:26.572Z,7.75
2022-12-25T10:57:59.305Z,6.93
2022-12-25T11:00:30.445Z,7.00
2022-12-25T11:02:59.648Z,8.73
2022-12-25T11:05:29.868Z,7.15
2022-12-25T11:08:00.301Z,8.25
2022-12-25T11:10:31.407Z,5.70
2022-12-25T11:13:02.401Z,6.57
2022-12-25T11:15:38.021Z,5.90
2022-12-25T11:18:18.087Z,5.78
2022-12-25T11:20:50.317Z,6.72
2022-12-25T11:23:20.539Z,4.95
2022-12-25T11:25:56.463Z,6.20
2022-12-25T11:28:26.243Z,3.93
2022-12-25T11:30:58.166Z,3.95
2022-12-25T11:33:30.255Z,5.63
2022-12-25T11:36:02.290Z,3.35
2022-12-25T11:38:30.079Z,5.15
2022-12-25T11:41:01.726Z,3.33
2022-12-25T11:43:37.262Z,4.45
2022-12-25T11:46:12.990Z,4.18
2022-12-25T11:48:45.695Z,3.88
2022-12-25T11:51:15.761Z,3.40
2022-12-25T11:53:48.170Z,3.27
2022-12-25T11:56:19.876Z,3.85
2022-12-25T11:58:51.645Z,4.03
2022-12-25T12:01:28.865Z,3.13
2022-12-25T12:03:57.781Z,3.15
2022-12-25T12:06:32.016Z,4.20
2022-12-25T12:09:06.242Z,5.55
2022-12-25T12:11:38.740Z,3.38
2022-12-25T12:14:21.047Z,3.35
2022-12-25T12:16:49.795Z,2.53
2022-12-25T12:19:27.186Z,5.53
2022-12-25T12:21:57.406Z,5.68
2022-12-25T12:24:29.409Z,10.68
2022-12-25T12:27:03.799Z,5.88
2022-12-25T12:29:39.701Z,6.70
2022-12-25T12:32:21.702Z,4.97
2022-12-25T12:34:50.752Z,9.15
2022-12-25T12:37:25.031Z,7.80
2022-12-25T12:39:56.082Z,10.93
2022-12-25T12:42:27.473Z,16.33
2022-12-25T12:44:59.976Z,8.83
2022-12-25T12:47:34.281Z,8.75
2022-12-25T12:50:03.047Z,11.70
2022-12-25T12:52:35.478Z,5.97
2022-12-25T12:55:06.771Z,7.50
2022-12-25T12:57:40.199Z,10.90
2022-12-25T13:00:18.233Z,22.40
2022-12-25T13:03:04.577Z,10.52
2022-12-25T13:05:40.174Z,7.95
2022-12-25T13:08:19.259Z,4.72
2022-12-25T13:10:50.807Z,23.17
2022-12-25T13:13:22.248Z,12.00
2022-12-25T13:15:52.624Z,3.65
2022-12-25T13:18:22.489Z,7.00
2022-12-25T13:20:55.088Z,5.80
2022-12-25T13:23:28.196Z,3.23
2022-12-25T13:25:57.516Z,2.60
2022-12-25T13:28:26.489Z,3.55
2022-12-25T13:31:02.431Z,2.85
2022-12-25T13:33:30.720Z,2.20
2022-12-25T13:36:00.294Z,3.27
2022-12-25T13:38:29.520Z,3.83
2022-12-25T13:41:16.602Z,4.68
2022-12-25T13:43:46.189Z,2.42
2022-12-25T13:46:16.412Z,4.75
2022-12-25T13:48:44.176Z,5.60
2022-12-25T13:51:16.933Z,5.80
2022-12-25T13:53:44.792Z,4.68
2022-12-25T13:56:15.531Z,4.10
2022-12-25T13:58:44.264Z,3.72
2022-12-25T14:01:19.093Z,3.97
2022-12-25T14:03:48.963Z,3.22
2022-12-25T14:06:20.101Z,4.35
2022-12-25T14:08:49.228Z,9.55
2022-12-25T14:11:19.004Z,11.68
2022-12-25T14:13:49.843Z,20.57
2022-12-25T14:16:20.240Z,13.40
2022-12-25T14:18:56.509Z,10.40
2022-12-25T14:21:29.412Z,6.30
2022-12-25T14:24:00.763Z,8.48
2022-12-25T14:26:31.412Z,6.40
2022-12-25T14:29:16.736Z,6.38
2022-12-25T14:31:49.214Z,7.03
2022-12-25T14:34:19.909Z,5.05
2022-12-25T14:36:50.136Z,7.60
2022-12-25T14:39:31.362Z,5.53
2022-12-25T14:41:59.282Z,5.95
2022-12-25T14:44:33.829Z,3.63
2022-12-25T14:47:13.473Z,3.67
2022-12-25T14:49:41.238Z,4.68
2022-12-25T14:52:16.067Z,2.83
2022-12-25T14:54:47.438Z,4.05
2022-12-25T14:57:28.144Z,5.05
2022-12-25T15:00:00.847Z,7.18
2022-12-25T15:02:41.178Z,5.75
2022-12-25T15:05:31.672Z,4.60
2022-12-25T15:08:06.512Z,4.05
2022-12-25T15:13:23.308Z,5.07
2022-12-25T15:15:57.012Z,5.00
2022-12-25T15:18:29.055Z,6.73
2022-12-25T15:20:57.159Z,3.95
2022-12-25T15:23:25.560Z,8.95
2022-12-25T15:25:54.023Z,5.55
2022-12-25T15:28:21.972Z,6.93
2022-12-25T15:30:50.946Z,6.50
2022-12-25T15:33:19.995Z,6.85
2022-12-25T15:35:49.386Z,11.23
2022-12-25T15:38:18.897Z,8.10
2022-12-25T15:40:48.354Z,8.32
2022-12-25T15:43:40.397Z,6.10
2022-12-25T15:46:04.955Z,7.82
2022-12-25T15:48:32.661Z,7.20
2022-12-25T15:51:01.949Z,8.85
2022-12-25T15:53:29.963Z,6.25
2022-12-25T15:55:57.901Z,5.13
2022-12-25T15:58:25.759Z,7.75
2022-12-25T16:00:53.594Z,5.43
2022-12-25T16:03:21.696Z,5.45
2022-12-25T16:05:49.832Z,5.97
2022-12-25T16:08:19.191Z,10.13
2022-12-25T16:10:48.015Z,9.13
2022-12-25T16:13:15.698Z,6.88
2022-12-25T16:15:45.079Z,7.45
2022-12-25T16:18:13.503Z,4.97
2022-12-25T16:20:41.436Z,5.80
2022-12-25T16:23:09.541Z,5.93
2022-12-25T16:25:38.792Z,5.47
2022-12-25T16:28:09.776Z,7.07
2022-12-25T16:30:38.390Z,6.65
2022-12-25T16:33:08.548Z,10.67
2022-12-25T16:35:37.977Z,9.43
2022-12-25T16:38:06.046Z,6.40
2022-12-25T16:40:34.399Z,5.53
2022-12-25T16:43:03.645Z,10.40
2022-12-25T16:45:31.477Z,8.47
2022-12-25T16:47:59.588Z,7.93
2022-12-25T16:50:27.905Z,6.55
2022-12-25T16:52:55.619Z,11.60
2022-12-25T16:55:29.384Z,6.78
2022-12-25T16:57:58.429Z,9.67
2022-12-25T17:00:28.133Z,10.90
2022-12-25T17:02:57.018Z,5.78
2022-12-25T17:05:25.119Z,15.95
2022-12-25T17:07:53.322Z,12.65
2022-12-25T17:10:21.526Z,12.23
2022-12-25T17:12:49.494Z,10.98
2022-12-25T17:15:17.561Z,10.45
2022-12-25T17:17:46.754Z,9.57
2022-12-25T17:20:14.597Z,13.82
2022-12-25T17:25:28.126Z,7.47
2022-12-25T17:27:56.990Z,8.45
2022-12-25T17:30:26.062Z,9.73
2022-12-25T17:32:59.300Z,8.70
2022-12-25T17:35:30.800Z,7.03
2022-12-25T17:38:03.036Z,10.75
2022-12-25T17:40:34.069Z,6.95
2022-12-25T17:43:03.416Z,5.43
2022-12-25T17:45:31.783Z,9.68
2022-12-25T17:48:03.705Z,8.40
2022-12-25T17:50:35.871Z,7.40
2022-12-25T17:53:07.171Z,9.43
2022-12-25T17:55:36.374Z,8.27
2022-12-25T17:58:15.294Z,7.93
2022-12-25T18:00:46.879Z,11.40
2022-12-25T18:23:31.353Z,9.68
2022-12-25T19:00:57.567Z,8.30
2022-12-25T21:02:52.810Z,8.03
2022-12-25T21:15:54.554Z,7.30
2022-12-25T21:18:33.416Z,6.67
2022-12-25T21:21:11.844Z,8.82
2022-12-25T21:24:07.117Z,9.43
2022-12-25T21:26:54.899Z,7.18
2022-12-25T21:40:31.410Z,6.93
2022-12-25T21:43:09.479Z,7.70
2022-12-25T21:45:50.014Z,7.82
2022-12-25T21:48:23.780Z,6.33
2022-12-25T21:51:12.604Z,8.95
2022-12-25T21:54:04.978Z,10.82
2022-12-25T21:56:49.652Z,9.35
2022-12-25T21:59:54.177Z,9.38
2022-12-25T22:02:39.571Z,7.77
2022-12-25T22:05:46.375Z,11.55
2022-12-25T22:08:25.677Z,9.13
2022-12-25T22:11:12.825Z,9.93
2022-12-25T22:17:58.989Z,10.57
2022-12-25T22:20:35.018Z,10.65
2022-12-25T22:23:03.807Z,8.43
2022-12-25T22:25:42.912Z,8.38
2022-12-25T22:28:35.020Z,10.50
2022-12-25T22:31:48.357Z,10.77
2022-12-25T22:35:26.488Z,7.65
2022-12-25T22:50:41.286Z,8.23
2022-12-25T22:53:35.759Z,8.93
2022-12-25T22:56:18.378Z,9.60
2022-12-25T23:02:15.188Z,6.68
2022-12-25T23:05:09.727Z,5.97
2022-12-25T23:07:59.869Z,7.40
2022-12-25T23:10:39.874Z,8.85
2022-12-25T23:13:37.890Z,7.82
2022-12-25T23:16:37.208Z,6.75
2022-12-25T23:19:29.398Z,9.33
2022-12-25T23:22:23.010Z,7.82
2022-12-25T23:25:11.296Z,6.07
2022-12-25T23:28:03.874Z,8.38
2022-12-25T23:30:51.566Z,10.65
2022-12-25T23:33:32.963Z,6.83
2022-12-25T23:36:16.997Z,9.18
2022-12-25T23:39:11.679Z,7.38
2022-12-25T23:41:48.678Z,8.25
2022-12-25T23:44:31.170Z,8.05
2022-12-25T23:47:28.423Z,8.30
2022-12-25T23:50:08.749Z,8.85
2022-12-25T23:52:43.490Z,9.07
2022-12-25T23:55:55.865Z,8.23
2022-12-25T23:58:47.737Z,10.40
